TimeEST,TemperatureF,Dew PointF,Humidity,Sea Level PressureIn,VisibilityMPH,Wind Direction,Wind SpeedMPH,Gust SpeedMPH,PrecipitationIn,Events,Conditions,WindDirDegrees,DateUTC
12:15 AM,64.2,57.6,79,29.95,10.0,South,5.8,-,N/A,,Overcast,170,2013-01-30 05:15:00
12:35 AM,64.8,57.4,77,29.95,10.0,SW,13.8,21.9,N/A,,Overcast,220,2013-01-30 05:35:00
12:55 AM,64.6,56.5,75,29.93,10.0,South,9.2,20.7,N/A,,Light Drizzle,180,2013-01-30 05:55:00
1:15 AM,64.4,55.8,73,29.92,10.0,South,11.5,25.3,N/A,,Overcast,170,2013-01-30 06:15:00
1:35 AM,64.0,54.9,72,29.91,10.0,SSW,8.1,27.6,N/A,,Mostly Cloudy,210,2013-01-30 06:35:00
1:55 AM,63.5,54.9,73,29.90,10.0,SSW,11.5,20.7,N/A,,Mostly Cloudy,200,2013-01-30 06:55:00
2:15 AM,63.7,55.6,75,29.89,10.0,SSW,12.7,23.0,N/A,,Overcast,210,2013-01-30 07:15:00
2:35 AM,64.0,56.1,75,29.89,10.0,SW,12.7,24.2,N/A,,Overcast,220,2013-01-30 07:35:00
2:55 AM,64.4,57.2,77,29.88,10.0,SW,18.4,28.8,N/A,Rain,Rain,230,2013-01-30 07:55:00
3:15 AM,63.1,58.3,84,29.87,5.0,SW,13.8,24.2,0.03,Rain,Rain,220,2013-01-30 08:15:00
3:35 AM,63.5,58.1,83,29.87,10.0,SW,13.8,27.6,0.04,Rain,Light Rain,220,2013-01-30 08:35:00
3:55 AM,63.7,58.1,82,29.86,10.0,South,11.5,23.0,0.04,,Light Drizzle,190,2013-01-30 08:55:00
4:15 AM,63.3,57.6,81,29.86,10.0,South,10.4,19.6,N/A,,Overcast,180,2013-01-30 09:15:00
4:35 AM,63.0,57.6,82,29.84,10.0,South,8.1,-,N/A,Rain,Rain,190,2013-01-30 09:35:00
4:55 AM,62.6,57.9,85,29.83,10.0,SSW,8.1,20.7,N/A,,Drizzle,200,2013-01-30 09:55:00
5:15 AM,63.0,57.7,83,29.83,10.0,South,12.7,19.6,N/A,,Light Drizzle,190,2013-01-30 10:15:00
5:35 AM,63.0,57.6,82,29.80,10.0,South,5.8,19.6,N/A,,Overcast,180,2013-01-30 10:35:00
5:55 AM,63.5,57.6,81,29.79,10.0,SSW,12.7,17.3,N/A,,Overcast,210,2013-01-30 10:55:00
6:15 AM,62.2,58.1,86,29.79,5.0,SW,6.9,-,0.04,Rain,Heavy Rain,230,2013-01-30 11:15:00
6:35 AM,61.2,57.9,89,29.78,4.0,SW,6.9,-,0.22,Rain,Rain,230,2013-01-30 11:35:00
6:55 AM,62.4,57.7,85,29.77,10.0,SSW,9.2,-,0.22,,Overcast,210,2013-01-30 11:55:00
7:15 AM,63.0,58.1,84,29.75,10.0,South,11.5,23.0,0.01,,Overcast,190,2013-01-30 12:15:00
7:35 AM,63.0,58.6,86,29.75,10.0,SSW,6.9,17.3,0.02,Rain,Light Rain,210,2013-01-30 12:35:00
7:55 AM,63.1,59.0,86,29.75,10.0,SW,17.3,25.3,0.02,Rain,Light Rain,230,2013-01-30 12:55:00
8:15 AM,63.7,59.2,85,29.75,10.0,SW,10.4,24.2,0.01,Rain,Rain,220,2013-01-30 13:15:00
8:35 AM,63.9,59.4,85,29.74,5.0,SE,4.6,19.6,0.10,Rain,Rain,140,2013-01-30 13:35:00
8:55 AM,64.8,59.4,83,29.74,10.0,South,10.4,-,0.10,Rain,Light Rain,180,2013-01-30 13:55:00
9:15 AM,64.9,59.2,82,29.74,10.0,SW,9.2,20.7,N/A,Rain,Rain,220,2013-01-30 14:15:00
9:35 AM,64.4,59.7,85,29.73,10.0,SW,6.9,-,0.01,Rain,Light Rain,220,2013-01-30 14:35:00
9:55 AM,64.2,60.1,86,29.73,10.0,WSW,9.2,16.1,0.01,Rain,Light Rain,250,2013-01-30 14:55:00
10:15 AM,65.8,59.9,81,29.72,10.0,SW,10.4,20.7,N/A,,Overcast,220,2013-01-30 15:15:00
10:35 AM,66.4,60.3,81,29.71,10.0,South,10.4,20.7,N/A,,Overcast,170,2013-01-30 15:35:00
10:55 AM,65.3,59.9,83,29.70,4.0,SW,10.4,21.9,0.02,Rain,Rain,230,2013-01-30 15:55:00
11:15 AM,64.6,60.1,85,29.68,7.0,SW,9.2,18.4,0.03,Rain,Heavy Rain,220,2013-01-30 16:15:00
11:35 AM,64.6,59.7,84,29.67,7.0,SW,12.7,26.5,0.07,Rain,Light Rain,220,2013-01-30 16:35:00
11:55 AM,63.1,60.3,90,29.66,2.5,WSW,11.5,23.0,0.30,Rain,Heavy Rain,250,2013-01-30 16:55:00
12:15 PM,64.8,59.7,84,29.63,10.0,SSW,16.1,21.9,N/A,Rain,Light Rain,200,2013-01-30 17:15:00
12:35 PM,65.5,59.5,81,29.58,7.0,SSE,15.0,25.3,0.01,Rain,Rain,150,2013-01-30 17:35:00
12:55 PM,59.0,56.5,91,29.65,1.2,West,28.8,50.6,0.31,Rain,Heavy Rain,260,2013-01-30 17:55:00
1:15 PM,57.7,56.3,95,29.66,4.0,West,13.8,24.2,0.10,Rain,Rain,260,2013-01-30 18:15:00
1:35 PM,57.7,56.1,94,29.63,7.0,WSW,9.2,-,0.15,Rain,Rain,250,2013-01-30 18:35:00
1:55 PM,57.2,56.3,97,29.63,3.0,SW,4.6,-,0.21,Rain,Heavy Rain,230,2013-01-30 18:55:00
2:15 PM,57.2,56.5,97,29.60,2.0,Calm,Calm,-,0.06,Rain,Heavy Rain,0,2013-01-30 19:15:00
2:35 PM,57.0,56.3,97,29.59,2.0,Calm,Calm,-,0.10,Rain,Heavy Rain,0,2013-01-30 19:35:00
2:55 PM,57.2,55.8,95,29.58,2.0,SW,6.9,-,0.25,Rain,Heavy Rain,220,2013-01-30 19:55:00
3:15 PM,57.2,55.0,92,29.58,1.2,SSW,8.1,18.4,0.04,Rain,Rain,210,2013-01-30 20:15:00
3:35 PM,56.8,54.9,93,29.58,4.0,SW,6.9,17.3,0.05,Rain,Heavy Rain,220,2013-01-30 20:35:00
3:55 PM,56.5,54.5,93,29.56,5.0,SW,9.2,-,0.09,Rain,Rain,230,2013-01-30 20:55:00
4:15 PM,56.5,53.6,90,29.57,5.0,SW,9.2,19.6,0.02,Rain,Rain,230,2013-01-30 21:15:00
4:35 PM,56.3,53.6,91,29.55,5.0,SW,8.1,-,0.09,Rain,Rain,230,2013-01-30 21:35:00
4:55 PM,55.6,53.4,92,29.57,4.0,WSW,18.4,-,0.13,Rain,Heavy Rain,240,2013-01-30 21:55:00
5:15 PM,50.7,45.9,83,29.60,5.0,WSW,17.3,27.6,0.01,Rain,Rain,250,2013-01-30 22:15:00
5:35 PM,48.6,44.6,86,29.62,7.0,SW,11.5,16.1,0.05,Rain,Rain,220,2013-01-30 22:35:00
5:55 PM,47.1,43.7,88,29.63,7.0,SSW,9.2,-,0.06,Rain,Rain,200,2013-01-30 22:55:00
6:15 PM,46.2,43.2,89,29.62,10.0,South,9.2,-,0.02,Rain,Rain,170,2013-01-30 23:15:00
6:35 PM,45.5,42.3,88,29.62,10.0,South,4.6,-,0.02,Rain,Rain,170,2013-01-30 23:35:00
7:15 PM,45.0,43.2,93,29.61,10.0,Calm,Calm,-,N/A,Rain,Light Rain,0,2013-01-31 00:15:00
7:35 PM,45.1,43.0,92,29.60,10.0,Calm,Calm,-,0.01,,Overcast,0,2013-01-31 00:35:00
7:55 PM,45.0,43.7,95,29.62,7.0,South,10.4,16.1,0.04,Rain,Rain,170,2013-01-31 00:55:00
8:15 PM,45.1,40.8,85,29.62,10.0,SW,3.5,-,N/A,Rain,Light Rain,220,2013-01-31 01:15:00
8:35 PM,44.8,41.5,88,29.62,10.0,Calm,Calm,-,N/A,Rain,Light Rain,0,2013-01-31 01:35:00
8:55 PM,44.6,40.5,85,29.62,10.0,SW,5.8,-,N/A,Rain,Light Rain,220,2013-01-31 01:55:00
9:15 PM,44.2,39.7,84,29.62,10.0,WSW,4.6,-,N/A,,Overcast,250,2013-01-31 02:15:00
9:35 PM,43.9,41.0,90,29.59,7.0,West,4.6,-,N/A,Rain,Light Rain,270,2013-01-31 02:35:00
9:55 PM,43.7,41.5,92,29.62,10.0,WSW,6.9,-,N/A,Rain,Rain,250,2013-01-31 02:55:00
10:15 PM,43.7,41.5,92,29.62,10.0,WSW,8.1,-,N/A,,Drizzle,240,2013-01-31 03:15:00
10:35 PM,43.9,41.0,90,29.61,7.0,WSW,15.0,18.4,N/A,,Drizzle,240,2013-01-31 03:35:00
10:55 PM,43.7,40.5,88,29.64,5.0,WSW,17.3,26.5,0.01,Rain,Rain,240,2013-01-31 03:55:00
11:15 PM,41.9,35.8,79,29.67,10.0,West,19.6,29.9,N/A,Rain,Light Rain,260,2013-01-31 04:15:00
11:35 PM,39.9,36.1,86,29.69,7.0,WSW,15.0,21.9,N/A,Rain,Light Rain,240,2013-01-31 04:35:00
11:55 PM,39.7,32.7,76,29.71,10.0,West,13.8,25.3,N/A,,Overcast,270,2013-01-31 04:55:00